Time;durP1;ratioP1;P1;durP2;ratioP2;P2;SDS_P1;SDS_P2;PMS_P1;PMS_P2;Temp;Humidity;BMP_temperature;BMP_pressure;BME280_temperature;BME280_humidity;BME280_pressure;Samples;Min_cycle;Max_cycle;Signal;HPM_P1;HPM_P2
2022/10/22 00:01:59;;;;;;;3.53;2.08;;;12.00;99.90;;;;;;5014040;28;20109;-80
2022/10/22 00:04:28;;;;;;;3.45;2.20;;;12.00;99.90;;;;;;5014371;28;20033;-80
2022/10/22 00:06:58;;;;;;;4.07;2.53;;;12.00;99.90;;;;;;5013317;28;20042;-80
2022/10/22 00:09:29;;;;;;;3.25;2.25;;;12.10;99.90;;;;;;5020709;28;20116;-80
2022/10/22 00:11:55;;;;;;;4.18;2.40;;;12.10;99.90;;;;;;5026683;28;20493;-80
2022/10/22 00:14:22;;;;;;;4.13;2.60;;;12.10;99.90;;;;;;5038792;28;20112;-80
2022/10/22 00:16:51;;;;;;;4.38;2.50;;;12.20;99.90;;;;;;5017755;28;20021;-80
2022/10/22 00:19:18;;;;;;;3.88;2.05;;;12.20;99.90;;;;;;5003024;28;20032;-80
2022/10/22 00:21:44;;;;;;;4.43;2.58;;;12.10;99.90;;;;;;5017669;28;20523;-81
2022/10/22 00:24:16;;;;;;;3.47;2.10;;;12.10;99.90;;;;;;5017215;28;20528;-80
2022/10/22 00:26:43;;;;;;;4.50;2.88;;;12.20;99.90;;;;;;5017387;28;20021;-80
2022/10/22 00:29:19;;;;;;;3.28;2.25;;;12.20;99.90;;;;;;5015332;28;20028;-80
2022/10/22 00:31:48;;;;;;;3.40;2.35;;;12.10;99.90;;;;;;4997571;28;20030;-80
2022/10/22 00:34:21;;;;;;;3.47;2.50;;;12.10;99.90;;;;;;5014814;28;20022;-80
2022/10/22 00:36:50;;;;;;;2.63;2.03;;;12.10;99.90;;;;;;5013602;28;20030;-80
2022/10/22 00:39:18;;;;;;;4.43;2.70;;;12.10;99.90;;;;;;5014027;28;20029;-80
2022/10/22 00:41:49;;;;;;;4.80;2.65;;;12.10;99.90;;;;;;5014881;28;20037;-80
2022/10/22 00:44:52;;;;;;;3.92;2.47;;;12.10;99.90;;;;;;5013798;28;20098;-81
2022/10/22 00:47:21;;;;;;;5.18;2.58;;;12.10;99.90;;;;;;5013161;28;20073;-80
2022/10/22 00:49:48;;;;;;;4.45;2.33;;;12.00;99.90;;;;;;5016943;28;20022;-79
2022/10/22 00:52:15;;;;;;;3.13;2.30;;;12.00;99.90;;;;;;5020951;28;20097;-80
2022/10/22 00:54:42;;;;;;;5.55;3.03;;;12.00;99.90;;;;;;5029203;28;20086;-81
2022/10/22 00:57:09;;;;;;;3.45;2.33;;;12.00;99.90;;;;;;5030591;28;20033;-80
2022/10/22 00:59:36;;;;;;;3.88;2.70;;;12.00;99.90;;;;;;5017373;28;20056;-80
2022/10/22 01:02:02;;;;;;;4.05;2.50;;;11.90;99.90;;;;;;5016829;28;20041;-80
2022/10/22 01:04:28;;;;;;;4.25;2.55;;;11.90;99.90;;;;;;5015130;28;20080;-80
2022/10/22 01:06:57;;;;;;;3.30;2.13;;;11.80;99.90;;;;;;5015114;28;20108;-80
2022/10/22 01:09:31;;;;;;;4.88;2.90;;;11.80;99.90;;;;;;5014489;28;20028;-80
2022/10/22 01:12:15;;;;;;;4.43;2.60;;;11.90;99.90;;;;;;5015078;28;20041;-80
2022/10/22 01:14:57;;;;;;;4.53;2.67;;;11.90;99.90;;;;;;5013847;28;20022;-81
2022/10/22 01:17:37;;;;;;;4.13;2.60;;;11.90;99.90;;;;;;5014888;28;20092;-80
2022/10/22 01:20:22;;;;;;;5.00;2.63;;;11.90;99.90;;;;;;5013829;28;20088;-80
2022/10/22 01:23:10;;;;;;;4.45;2.55;;;11.90;99.90;;;;;;5015065;28;20057;-80
2022/10/22 01:25:58;;;;;;;4.60;2.58;;;11.80;99.90;;;;;;5016680;28;20029;-81
2022/10/22 01:29:12;;;;;;;4.47;2.60;;;11.80;99.90;;;;;;5016734;28;20033;-80
2022/10/22 01:31:54;;;;;;;3.30;2.15;;;11.80;99.90;;;;;;4995496;28;20040;-80
2022/10/22 01:34:32;;;;;;;4.20;2.63;;;11.70;99.90;;;;;;5016245;28;20025;-81
2022/10/22 01:37:03;;;;;;;4.72;2.65;;;11.60;99.90;;;;;;5016258;28;20481;-80
2022/10/22 01:39:32;;;;;;;4.50;2.65;;;11.60;99.90;;;;;;5034213;28;20028;-80
2022/10/22 01:42:06;;;;;;;4.03;2.50;;;11.60;99.90;;;;;;5016230;28;20040;-80
2022/10/22 01:44:36;;;;;;;4.25;2.53;;;11.60;99.90;;;;;;5016545;28;20029;-80
2022/10/22 01:47:26;;;;;;;4.32;2.83;;;11.60;99.90;;;;;;4993703;28;20050;-80
2022/10/22 01:50:17;;;;;;;4.10;2.28;;;11.50;99.90;;;;;;4977553;28;20026;-80
2022/10/22 01:53:20;;;;;;;3.85;2.70;;;11.50;99.90;;;;;;4977821;28;20073;-80
2022/10/22 01:56:28;;;;;;;4.47;2.92;;;11.50;99.90;;;;;;4984879;28;20054;-80
2022/10/22 01:59:27;;;;;;;4.07;2.75;;;11.40;99.90;;;;;;4989072;28;20022;-80
2022/10/22 02:02:15;;;;;;;4.05;2.40;;;11.40;99.90;;;;;;4966043;28;20076;-80
2022/10/22 02:05:11;;;;;;;4.30;2.40;;;11.30;99.90;;;;;;4976528;28;20026;-79
2022/10/22 02:07:43;;;;;;;4.15;2.85;;;11.30;99.90;;;;;;4963475;28;20030;-80
2022/10/22 02:10:16;;;;;;;6.05;2.70;;;11.30;99.90;;;;;;4977147;28;20037;-80
2022/10/22 02:12:45;;;;;;;4.03;2.60;;;11.30;99.90;;;;;;4977105;28;20470;-80
2022/10/22 02:15:20;;;;;;;3.92;2.90;;;11.30;99.90;;;;;;4982970;28;20031;-79
2022/10/22 02:17:57;;;;;;;5.35;2.72;;;11.30;99.90;;;;;;4976873;28;20022;-80
2022/10/22 02:20:32;;;;;;;4.55;3.05;;;11.30;99.90;;;;;;4977333;28;20018;-80
2022/10/22 02:23:02;;;;;;;4.50;2.95;;;11.30;99.90;;;;;;4967217;28;20113;-80
2022/10/22 02:25:37;;;;;;;4.22;3.20;;;11.20;99.90;;;;;;4986045;28;20029;-80
2022/10/22 02:28:16;;;;;;;4.57;3.13;;;11.20;99.90;;;;;;4996367;28;20033;-81
2022/10/22 02:30:53;;;;;;;6.15;3.20;;;11.20;99.90;;;;;;4983121;28;20207;-80
2022/10/22 02:33:29;;;;;;;4.88;3.45;;;11.20;99.90;;;;;;4985568;28;20018;-79
2022/10/22 02:36:02;;;;;;;4.30;3.15;;;11.20;99.90;;;;;;4980954;28;20113;-80
2022/10/22 02:38:37;;;;;;;5.57;3.22;;;11.20;99.90;;;;;;4980486;28;20023;-80
2022/10/22 02:41:13;;;;;;;6.72;3.58;;;11.20;99.90;;;;;;4983451;28;20023;-80
2022/10/22 02:44:11;;;;;;;4.50;3.17;;;11.20;99.90;;;;;;4951898;29;20107;-79
2022/10/22 02:46:42;;;;;;;5.18;3.53;;;11.20;99.90;;;;;;5010716;28;20022;-81
2022/10/22 02:49:11;;;;;;;4.25;3.10;;;11.10;99.90;;;;;;5023455;28;20018;-80
2022/10/22 02:51:42;;;;;;;5.18;3.83;;;11.10;99.90;;;;;;5001254;28;20029;-80
2022/10/22 02:54:12;;;;;;;4.88;3.50;;;11.10;99.90;;;;;;4999955;28;20030;-81
2022/10/22 02:56:41;;;;;;;4.78;3.33;;;11.20;99.90;;;;;;5018343;28;20025;-80
2022/10/22 02:59:07;;;;;;;5.00;3.72;;;11.20;99.90;;;;;;5000285;28;20026;-80
2022/10/22 03:01:37;;;;;;;5.03;3.42;;;11.20;99.90;;;;;;5000410;28;20032;-80
2022/10/22 03:04:08;;;;;;;5.93;3.20;;;11.20;99.90;;;;;;5016572;28;20479;-80
2022/10/22 03:06:37;;;;;;;5.20;3.60;;;11.20;99.90;;;;;;5000564;28;20373;-80
2022/10/22 03:09:06;;;;;;;4.65;3.05;;;11.20;99.90;;;;;;4987003;28;20029;-80
2022/10/22 03:11:35;;;;;;;4.88;3.40;;;11.20;99.90;;;;;;5000167;28;20030;-80
2022/10/22 03:14:01;;;;;;;5.18;3.63;;;11.20;99.90;;;;;;4985884;28;20105;-80
2022/10/22 03:16:30;;;;;;;5.72;3.38;;;11.30;99.90;;;;;;4999470;28;20131;-80
2022/10/22 03:19:05;;;;;;;5.63;3.35;;;11.30;99.90;;;;;;4999210;28;20026;-80
2022/10/22 03:21:41;;;;;;;4.80;3.42;;;11.30;99.90;;;;;;4998863;28;20037;-81
2022/10/22 03:24:15;;;;;;;5.72;3.63;;;11.30;99.90;;;;;;4998400;28;20092;-80
2022/10/22 03:26:45;;;;;;;6.85;3.53;;;11.20;99.90;;;;;;4999442;28;20022;-80
2022/10/22 03:29:15;;;;;;;4.88;3.40;;;11.20;99.90;;;;;;5016655;28;20050;-80
2022/10/22 03:31:47;;;;;;;5.18;3.30;;;11.20;99.90;;;;;;4998957;28;20517;-80
2022/10/22 03:34:19;;;;;;;5.75;3.28;;;11.20;99.90;;;;;;4997602;28;20482;-80
2022/10/22 03:37:00;;;;;;;6.22;3.58;;;11.20;99.90;;;;;;5016551;28;20113;-80
2022/10/22 03:39:30;;;;;;;3.80;2.90;;;11.10;99.90;;;;;;4985217;28;20564;-80
2022/10/22 03:42:03;;;;;;;5.82;3.45;;;11.10;99.90;;;;;;4998811;28;20038;-80
2022/10/22 03:44:36;;;;;;;4.55;3.13;;;11.10;99.90;;;;;;4998709;28;20076;-80
2022/10/22 03:47:10;;;;;;;5.43;3.22;;;11.00;99.90;;;;;;4998331;28;20113;-80
2022/10/22 03:49:39;;;;;;;5.07;3.60;;;11.00;99.90;;;;;;4998024;28;20034;-80
2022/10/22 03:52:16;;;;;;;4.78;2.90;;;11.00;99.90;;;;;;4998781;28;20025;-80
2022/10/22 03:54:49;;;;;;;5.28;3.22;;;11.00;99.90;;;;;;4998676;28;20030;-80
2022/10/22 03:57:18;;;;;;;5.13;2.90;;;10.90;99.90;;;;;;4998741;28;20076;-80
2022/10/22 03:59:51;;;;;;;6.18;3.75;;;11.00;99.90;;;;;;4998495;28;20014;-80
2022/10/22 04:02:20;;;;;;;6.72;3.30;;;11.00;99.90;;;;;;4998603;28;20049;-80
2022/10/22 04:04:52;;;;;;;5.38;3.42;;;10.90;99.90;;;;;;4997050;28;20030;-80
2022/10/22 04:07:22;;;;;;;4.43;3.15;;;10.90;99.90;;;;;;4998361;28;20101;-81
2022/10/22 04:09:48;;;;;;;4.40;3.00;;;10.90;99.90;;;;;;4998367;28;20037;-80
2022/10/22 04:12:14;;;;;;;4.95;3.15;;;10.90;99.90;;;;;;4997692;28;20064;-81
2022/10/22 04:14:46;;;;;;;4.65;2.70;;;10.90;99.90;;;;;;5015664;28;20022;-81
2022/10/22 04:17:15;;;;;;;3.63;2.28;;;10.90;99.90;;;;;;4999066;28;20023;-81
2022/10/22 04:19:48;;;;;;;5.18;3.03;;;11.00;99.90;;;;;;4978756;28;20385;-81
2022/10/22 04:22:17;;;;;;;4.63;2.75;;;11.10;99.90;;;;;;5012359;28;20466;-81
2022/10/22 04:24:46;;;;;;;6.07;3.05;;;11.30;99.90;;;;;;5015725;28;20033;-81
2022/10/22 04:27:18;;;;;;;5.95;3.60;;;11.60;99.90;;;;;;4996406;28;20030;-81
2022/10/22 04:29:50;;;;;;;3.97;2.90;;;11.90;99.90;;;;;;4987087;28;20022;-81
2022/10/22 04:32:36;;;;;;;5.70;3.55;;;12.10;99.90;;;;;;5020591;28;20033;-80
2022/10/22 04:35:09;;;;;;;4.55;2.90;;;12.30;99.90;;;;;;5022599;28;20034;-79
2022/10/22 04:37:35;;;;;;;6.45;3.03;;;12.30;99.90;;;;;;5020832;28;20013;-80
2022/10/22 04:40:03;;;;;;;5.30;2.95;;;12.30;99.90;;;;;;5006571;28;20054;-78
2022/10/22 04:42:30;;;;;;;4.82;3.15;;;12.40;99.90;;;;;;4987498;28;20026;-80
2022/10/22 04:44:57;;;;;;;6.07;2.58;;;12.40;99.90;;;;;;5005109;28;20450;-80
2022/10/22 04:47:26;;;;;;;6.25;3.05;;;12.50;99.90;;;;;;5001148;28;20050;-79
2022/10/22 04:49:52;;;;;;;5.40;2.78;;;12.50;99.90;;;;;;4998474;28;20021;-80
2022/10/22 04:52:18;;;;;;;5.95;3.05;;;12.50;99.90;;;;;;5015239;28;20037;-80
2022/10/22 04:54:49;;;;;;;5.70;3.00;;;12.50;99.90;;;;;;4998008;28;20048;-80
2022/10/22 04:57:18;;;;;;;5.70;2.90;;;12.60;99.90;;;;;;4997703;28;20041;-80
2022/10/22 04:59:47;;;;;;;7.47;3.55;;;12.70;99.90;;;;;;5016187;28;20053;-80
2022/10/22 05:02:15;;;;;;;9.50;3.72;;;12.60;99.90;;;;;;4997677;28;20018;-80
2022/10/22 05:04:44;;;;;;;7.18;3.78;;;12.70;99.90;;;;;;4996436;28;20068;-80
2022/10/22 05:07:13;;;;;;;5.22;3.38;;;12.70;99.90;;;;;;5014457;28;20026;-80
2022/10/22 05:09:44;;;;;;;6.93;3.20;;;12.80;99.90;;;;;;4997161;28;20116;-79
2022/10/22 05:12:11;;;;;;;4.93;2.85;;;12.70;99.90;;;;;;4997061;28;20025;-79
2022/10/22 05:14:43;;;;;;;6.90;3.28;;;12.70;99.90;;;;;;4997068;28;20029;-78
2022/10/22 05:17:14;;;;;;;5.43;3.20;;;12.70;99.90;;;;;;4996934;28;20038;-79
2022/10/22 05:19:44;;;;;;;4.38;2.75;;;12.70;99.90;;;;;;5014603;28;20026;-79
2022/10/22 05:22:11;;;;;;;3.97;2.53;;;12.60;99.90;;;;;;4996635;28;20026;-79
2022/10/22 05:24:41;;;;;;;5.05;2.75;;;12.60;99.90;;;;;;4997133;28;20062;-80
2022/10/22 05:27:14;;;;;;;8.43;3.38;;;12.60;99.90;;;;;;4996772;28;20037;-80
2022/10/22 05:29:40;;;;;;;6.60;3.42;;;12.60;99.90;;;;;;5013981;28;20076;-80
2022/10/22 05:32:14;;;;;;;5.72;3.20;;;12.60;99.90;;;;;;5014596;28;20029;-79
2022/10/22 05:34:43;;;;;;;4.38;2.92;;;12.50;99.90;;;;;;5001674;28;20425;-80
2022/10/22 05:37:13;;;;;;;4.97;2.85;;;12.50;99.90;;;;;;5014364;28;20026;-79
2022/10/22 05:39:40;;;;;;;6.60;3.25;;;12.50;99.90;;;;;;4997005;28;20041;-79
2022/10/22 05:42:08;;;;;;;4.82;2.67;;;12.50;99.90;;;;;;5014812;28;20100;-80
2022/10/22 05:44:39;;;;;;;4.90;2.97;;;12.50;99.90;;;;;;4996467;28;20018;-79
2022/10/22 05:47:11;;;;;;;5.80;2.88;;;12.60;99.90;;;;;;4995972;28;20045;-80
2022/10/22 05:49:37;;;;;;;4.55;3.20;;;12.60;99.90;;;;;;4996593;28;20458;-80
2022/10/22 05:52:03;;;;;;;4.63;2.97;;;12.60;99.90;;;;;;4996517;28;20069;-79
2022/10/22 05:54:29;;;;;;;5.70;3.35;;;12.60;99.90;;;;;;5013783;28;20521;-80
2022/10/22 05:56:55;;;;;;;6.28;2.90;;;12.60;99.90;;;;;;5015979;28;20142;-80
2022/10/22 05:59:21;;;;;;;4.18;3.05;;;12.60;99.90;;;;;;4999321;28;20026;-80
2022/10/22 06:01:47;;;;;;;6.72;3.50;;;12.60;99.90;;;;;;4999528;28;20827;-80
2022/10/22 06:04:15;;;;;;;8.20;3.65;;;12.60;99.90;;;;;;5015838;28;20025;-81
2022/10/22 06:06:49;;;;;;;5.88;3.30;;;12.60;99.90;;;;;;5004292;28;20018;-80
2022/10/22 06:09:18;;;;;;;4.72;3.35;;;12.60;99.90;;;;;;4996934;28;20026;-80
2022/10/22 06:11:45;;;;;;;5.70;3.33;;;12.70;99.90;;;;;;5001694;28;20018;-81
2022/10/22 06:14:11;;;;;;;11.18;4.20;;;12.70;99.90;;;;;;4996836;28;20535;-81
2022/10/22 06:16:37;;;;;;;6.32;3.90;;;12.80;99.90;;;;;;4999157;28;20069;-80
2022/10/22 06:19:04;;;;;;;9.00;3.95;;;12.80;99.90;;;;;;5018825;28;20026;-80
2022/10/22 06:21:31;;;;;;;6.40;3.85;;;12.90;99.90;;;;;;4996006;28;20036;-79
2022/10/22 06:23:59;;;;;;;8.48;4.05;;;13.00;99.90;;;;;;5001876;28;20092;-79
2022/10/22 06:26:25;;;;;;;6.38;3.90;;;13.00;99.90;;;;;;5020985;28;20574;-80
2022/10/22 06:28:55;;;;;;;7.50;4.32;;;13.10;99.90;;;;;;5022676;28;20029;-81
2022/10/22 06:31:47;;;;;;;6.35;3.60;;;13.10;99.90;;;;;;5010086;28;20061;-80
2022/10/22 06:34:13;;;;;;;7.68;3.92;;;13.20;99.90;;;;;;5007556;28;20022;-81
2022/10/22 06:36:45;;;;;;;6.40;3.53;;;13.20;99.90;;;;;;5024356;28;20038;-81
2022/10/22 06:39:14;;;;;;;6.23;3.47;;;13.20;99.90;;;;;;5023729;28;20026;-79
2022/10/22 06:41:43;;;;;;;6.40;3.78;;;13.20;99.90;;;;;;5020085;28;20283;-81
2022/10/22 06:44:17;;;;;;;5.85;3.25;;;13.20;99.90;;;;;;5023470;28;20030;-81
2022/10/22 06:46:43;;;;;;;6.05;3.30;;;13.20;99.90;;;;;;4999502;28;20119;-81
2022/10/22 06:49:13;;;;;;;4.80;2.90;;;13.20;99.90;;;;;;5016795;28;20072;-80
2022/10/22 06:51:40;;;;;;;7.15;2.90;;;13.20;99.90;;;;;;4999185;28;20018;-80
2022/10/22 06:54:07;;;;;;;10.63;3.75;;;13.10;99.90;;;;;;4999964;28;20057;-80
2022/10/22 06:56:33;;;;;;;5.22;3.15;;;13.10;99.90;;;;;;4999438;28;20533;-81
2022/10/22 06:58:59;;;;;;;9.60;3.88;;;13.10;99.90;;;;;;5003919;28;20461;-82
2022/10/22 07:01:27;;;;;;;7.30;4.10;;;13.10;99.90;;;;;;5008060;28;20026;-80
2022/10/22 07:03:53;;;;;;;5.35;3.38;;;13.10;99.90;;;;;;5001016;28;20101;-80
2022/10/22 07:06:20;;;;;;;6.03;3.70;;;13.20;99.90;;;;;;4999438;28;20521;-81
2022/10/22 07:08:46;;;;;;;6.07;3.08;;;13.30;99.90;;;;;;4997357;28;20021;-81
2022/10/22 07:11:17;;;;;;;7.68;3.70;;;13.40;99.90;;;;;;5016030;28;20470;-80
2022/10/22 07:13:43;;;;;;;8.52;4.63;;;13.50;99.90;;;;;;4998141;28;20034;-80
2022/10/22 07:16:09;;;;;;;7.13;4.28;;;13.70;99.90;;;;;;5015659;28;20033;-81
2022/10/22 07:18:37;;;;;;;6.60;3.97;;;13.70;99.90;;;;;;4997975;28;20497;-80
2022/10/22 07:21:04;;;;;;;6.57;3.80;;;13.80;99.90;;;;;;5015800;28;20026;-80
2022/10/22 07:23:30;;;;;;;5.53;3.40;;;13.90;99.90;;;;;;4998207;28;20352;-81
2022/10/22 07:25:57;;;;;;;4.68;2.58;;;13.90;99.90;;;;;;4997910;28;20025;-81
2022/10/22 07:28:23;;;;;;;4.57;3.00;;;14.00;99.90;;;;;;5015537;28;20531;-81
2022/10/22 07:30:49;;;;;;;6.00;3.40;;;14.00;99.90;;;;;;4997707;28;20033;-81
2022/10/22 07:33:15;;;;;;;7.78;3.38;;;14.10;99.90;;;;;;4997536;28;20386;-81
2022/10/22 07:35:41;;;;;;;7.47;3.17;;;14.20;99.90;;;;;;4997941;28;20022;-81
2022/10/22 07:38:07;;;;;;;5.70;2.92;;;14.30;99.90;;;;;;4997709;28;20030;-80
2022/10/22 07:40:35;;;;;;;4.93;3.03;;;14.30;99.90;;;;;;4997674;28;20033;-81
2022/10/22 07:43:04;;;;;;;9.45;3.33;;;14.40;99.90;;;;;;5014746;28;20505;-80
2022/10/22 07:45:30;;;;;;;6.03;2.92;;;14.40;99.90;;;;;;5000862;28;20029;-81
2022/10/22 07:47:56;;;;;;;4.93;2.75;;;14.60;99.90;;;;;;5006214;28;20405;-81
2022/10/22 07:50:22;;;;;;;8.65;3.22;;;14.60;99.90;;;;;;5015212;28;20377;-79
2022/10/22 07:52:48;;;;;;;5.85;3.28;;;14.60;99.90;;;;;;5014617;28;20050;-80
2022/10/22 07:55:14;;;;;;;5.68;3.05;;;14.60;99.90;;;;;;4997238;28;20542;-79
2022/10/22 07:57:40;;;;;;;7.10;3.58;;;14.50;99.90;;;;;;5014876;28;20037;-80
2022/10/22 08:00:08;;;;;;;7.03;3.33;;;14.50;99.90;;;;;;4997226;28;20400;-80
2022/10/22 08:02:34;;;;;;;8.05;3.40;;;14.60;99.90;;;;;;4997455;28;20026;-79
2022/10/22 08:05:00;;;;;;;7.20;3.92;;;14.70;99.90;;;;;;4997076;28;20061;-79
2022/10/22 08:07:26;;;;;;;7.78;3.55;;;14.80;99.90;;;;;;4996926;28;20061;-79
2022/10/22 08:09:53;;;;;;;6.18;3.50;;;15.00;99.90;;;;;;4996800;28;20022;-80
2022/10/22 08:12:19;;;;;;;7.10;2.97;;;15.20;99.90;;;;;;4996425;28;20520;-79
2022/10/22 08:14:45;;;;;;;7.72;3.30;;;15.30;99.90;;;;;;4996817;28;20053;-80
2022/10/22 08:17:11;;;;;;;8.45;3.67;;;15.50;99.90;;;;;;4983035;28;20495;-78
2022/10/22 08:19:38;;;;;;;4.68;2.55;;;15.60;99.90;;;;;;4996559;28;20029;-80
2022/10/22 08:22:04;;;;;;;6.45;2.90;;;15.80;99.90;;;;;;4996270;28;20029;-80
2022/10/22 08:24:30;;;;;;;8.13;2.67;;;15.90;99.90;;;;;;4996879;28;20033;-80
2022/10/22 08:26:56;;;;;;;5.57;2.28;;;15.90;99.90;;;;;;5004279;28;20053;-80
2022/10/22 08:29:23;;;;;;;5.72;2.47;;;15.90;99.90;;;;;;4996925;28;20099;-80
2022/10/22 08:32:01;;;;;;;7.93;2.60;;;15.90;99.90;;;;;;4996615;28;20018;-78
2022/10/22 08:34:28;;;;;;;8.13;2.97;;;15.90;99.90;;;;;;5018868;28;20033;-79
2022/10/22 08:36:54;;;;;;;6.22;2.42;;;16.00;99.90;;;;;;5015848;28;20025;-81
2022/10/22 08:39:20;;;;;;;6.57;2.30;;;16.00;99.90;;;;;;5025680;28;20030;-80
2022/10/22 08:42:17;;;;;;;5.65;2.25;;;16.10;99.90;;;;;;4984929;28;20537;-80
2022/10/22 08:45:06;;;;;;;6.88;2.33;;;16.30;99.90;;;;;;5014000;28;20433;-79
2022/10/22 08:47:53;;;;;;;6.22;2.53;;;16.40;99.90;;;;;;4941172;28;20160;-81
2022/10/22 08:50:34;;;;;;;7.97;2.80;;;16.50;99.90;;;;;;4986821;28;20030;-79
2022/10/22 08:53:16;;;;;;;7.47;2.75;;;16.50;99.90;;;;;;4977554;28;20365;-79
2022/10/22 08:55:48;;;;;;;5.10;2.10;;;16.50;99.90;;;;;;4978471;28;20058;-79
2022/10/22 08:58:34;;;;;;;8.57;2.00;;;16.50;99.90;;;;;;4976297;28;20363;-79
2022/10/22 09:01:09;;;;;;;5.47;2.22;;;16.50;99.90;;;;;;4975180;28;20106;-79
2022/10/22 09:03:44;;;;;;;5.38;1.83;;;16.40;99.90;;;;;;4976975;28;20026;-79
2022/10/22 09:06:18;;;;;;;8.43;2.10;;;16.40;99.90;;;;;;4979981;28;20485;-80
2022/10/22 09:08:46;;;;;;;6.60;2.17;;;16.40;99.90;;;;;;4986149;28;20201;-80
2022/10/22 09:11:14;;;;;;;6.35;1.95;;;16.30;99.90;;;;;;4984854;28;20120;-80
2022/10/22 09:13:43;;;;;;;7.22;2.00;;;16.20;99.90;;;;;;4986365;28;20060;-80
2022/10/22 09:16:44;;;;;;;6.30;2.70;;;16.20;99.90;;;;;;4999073;28;20030;-80
2022/10/22 09:19:45;;;;;;;2.95;1.40;;;16.10;99.90;;;;;;4982725;28;20948;-81
2022/10/22 09:22:14;;;;;;;5.38;1.88;;;16.00;99.90;;;;;;4993066;28;20026;-80
2022/10/22 09:24:46;;;;;;;4.72;2.08;;;16.00;99.90;;;;;;4979788;28;20033;-80
2022/10/22 09:27:18;;;;;;;4.45;1.73;;;16.00;99.90;;;;;;4976302;28;20022;-79
2022/10/22 09:29:47;;;;;;;4.30;1.75;;;15.80;99.90;;;;;;4978032;28;20077;-80
2022/10/22 09:32:14;;;;;;;5.13;1.65;;;15.70;99.90;;;;;;4995055;28;20030;-80
2022/10/22 09:34:44;;;;;;;4.75;1.48;;;15.60;99.90;;;;;;4975623;28;20073;-79
2022/10/22 09:37:10;;;;;;;4.85;2.10;;;15.50;99.90;;;;;;4990518;28;20071;-79
2022/10/22 09:39:47;;;;;;;6.50;1.67;;;15.50;99.90;;;;;;4975785;28;20037;-79
2022/10/22 09:42:20;;;;;;;5.60;1.58;;;15.60;99.90;;;;;;4985246;28;20026;-80
2022/10/22 09:44:57;;;;;;;6.75;2.10;;;15.70;99.90;;;;;;4990088;28;20170;-80
2022/10/22 09:47:37;;;;;;;7.25;2.15;;;15.80;99.90;;;;;;4989003;28;20046;-80
2022/10/22 09:50:14;;;;;;;6.88;1.88;;;15.90;99.90;;;;;;5012737;28;20136;-79
2022/10/22 09:52:41;;;;;;;6.50;1.50;;;16.00;99.90;;;;;;4994369;28;20030;-80
2022/10/22 09:55:17;;;;;;;6.43;1.85;;;16.00;99.90;;;;;;4997088;28;20033;-80
2022/10/22 09:57:43;;;;;;;8.15;1.90;;;16.10;99.90;;;;;;4993705;28;20033;-80
2022/10/22 10:00:11;;;;;;;5.88;1.75;;;16.20;99.90;;;;;;5013151;28;20101;-80
2022/10/22 10:02:41;;;;;;;3.47;1.60;;;16.30;99.90;;;;;;4998388;28;20041;-80
2022/10/22 10:05:09;;;;;;;5.18;1.70;;;16.40;99.90;;;;;;4993798;28;20022;-80
2022/10/22 10:07:35;;;;;;;7.93;1.58;;;16.40;99.90;;;;;;4997276;28;20030;-80
2022/10/22 10:10:43;;;;;;;5.55;2.78;;;16.50;99.90;;;;;;4996142;28;20057;-81
2022/10/22 10:13:37;;;;;;;7.35;2.78;;;16.50;99.90;;;;;;4995790;28;20033;-80
2022/10/22 10:16:35;;;;;;;8.20;2.10;;;16.40;99.90;;;;;;5015806;28;20045;-81
2022/10/22 10:19:32;;;;;;;7.05;2.67;;;16.50;99.90;;;;;;4989781;28;20028;-80
2022/10/22 10:22:28;;;;;;;7.03;2.60;;;16.60;99.90;;;;;;4993193;28;20376;-81
2022/10/22 10:25:18;;;;;;;5.32;2.10;;;16.60;99.90;;;;;;4984562;28;20038;-80
2022/10/22 10:27:52;;;;;;;5.45;2.60;;;16.70;99.90;;;;;;4996048;28;20025;-79
2022/10/22 10:30:23;;;;;;;6.45;2.03;;;16.70;99.90;;;;;;4999296;28;20128;-79
2022/10/22 10:33:30;;;;;;;4.82;1.80;;;16.60;99.90;;;;;;5004173;28;20037;-80
2022/10/22 10:36:22;;;;;;;4.20;1.80;;;16.50;99.90;;;;;;5013440;28;20025;-80
2022/10/22 10:38:59;;;;;;;8.05;2.55;;;16.60;99.90;;;;;;5017230;28;20034;-81
2022/10/22 10:42:00;;;;;;;6.32;2.40;;;16.60;99.90;;;;;;5001441;28;20119;-81
2022/10/22 10:44:38;;;;;;;6.45;2.25;;;16.60;99.90;;;;;;5010018;28;20038;-80
2022/10/22 10:47:26;;;;;;;6.05;2.28;;;16.70;99.90;;;;;;4996561;28;20045;-80
2022/10/22 10:50:01;;;;;;;6.03;2.33;;;16.90;99.90;;;;;;5009567;28;20125;-80
2022/10/22 10:52:47;;;;;;;7.50;2.15;;;17.20;99.90;;;;;;4997385;28;20029;-80
2022/10/22 10:55:31;;;;;;;8.23;2.35;;;17.60;99.90;;;;;;5016197;28;20125;-81
2022/10/22 10:58:28;;;;;;;6.55;2.65;;;18.00;99.90;;;;;;4998566;28;20032;-81
2022/10/22 11:01:17;;;;;;;7.32;2.47;;;18.50;99.90;;;;;;5003721;28;20022;-81
2022/10/22 11:04:24;;;;;;;7.28;2.50;;;19.00;99.90;;;;;;4967164;28;20026;-81
2022/10/22 11:06:55;;;;;;;7.70;2.35;;;19.40;99.90;;;;;;4956406;28;20022;-80
2022/10/22 11:09:26;;;;;;;7.28;2.60;;;19.60;99.90;;;;;;4995510;28;20119;-79
2022/10/22 11:12:30;;;;;;;7.43;2.35;;;19.50;99.90;;;;;;5001508;28;20040;-81
2022/10/22 11:15:16;;;;;;;8.02;2.42;;;19.60;99.90;;;;;;4995606;28;20037;-79
2022/10/22 11:17:47;;;;;;;6.22;2.13;;;20.20;99.90;;;;;;4998776;28;20055;-79
2022/10/22 11:20:52;;;;;;;10.02;2.58;;;21.30;99.90;;;;;;5001160;28;20022;-79
2022/10/22 11:23:53;;;;;;;11.43;2.58;;;21.70;99.90;;;;;;5000508;28;20077;-81
2022/10/22 11:27:14;;;;;;;7.65;2.03;;;22.10;99.90;;;;;;5013730;28;20029;-81
2022/10/22 11:29:49;;;;;;;5.28;1.52;;;22.50;99.90;;;;;;4959422;28;20062;-81
2022/10/22 11:32:19;;;;;;;5.07;1.30;;;22.70;99.90;;;;;;4996533;28;20136;-80
2022/10/22 11:34:54;;;;;;;4.30;1.25;;;23.20;99.90;;;;;;4993189;28;20038;-81
2022/10/22 11:37:23;;;;;;;4.53;1.15;;;24.10;99.90;;;;;;5003027;28;20036;-81
2022/10/22 11:40:04;;;;;;;5.72;1.35;;;24.60;99.90;;;;;;4997053;28;20584;-83
2022/10/22 11:42:56;;;;;;;3.28;1.08;;;24.50;99.90;;;;;;5012334;28;20500;-81
2022/10/22 11:45:22;;;;;;;5.63;1.30;;;24.00;99.90;;;;;;4996621;28;20022;-81
2022/10/22 11:48:15;;;;;;;5.03;1.20;;;23.40;99.90;;;;;;4998545;28;20053;-81
2022/10/22 11:50:46;;;;;;;5.72;1.27;;;22.70;99.90;;;;;;4994236;28;20077;-81
2022/10/22 11:53:19;;;;;;;6.93;1.67;;;22.10;99.90;;;;;;4998786;28;20033;-80
2022/10/22 11:55:48;;;;;;;6.88;1.40;;;21.50;99.90;;;;;;5022149;28;20469;-80
2022/10/22 11:58:42;;;;;;;5.63;1.50;;;21.00;99.90;;;;;;4993137;28;20026;-80
2022/10/22 12:01:11;;;;;;;6.35;1.42;;;21.60;99.90;;;;;;4991655;28;20035;-81
2022/10/22 12:03:42;;;;;;;5.00;1.30;;;21.70;99.90;;;;;;4997870;28;20081;-81
2022/10/22 12:06:14;;;;;;;4.95;1.65;;;22.10;99.90;;;;;;5009708;28;20022;-80
2022/10/22 12:08:50;;;;;;;9.07;1.97;;;22.60;99.90;;;;;;4999521;28;20120;-81
2022/10/22 12:11:40;;;;;;;4.80;1.20;;;22.70;99.90;;;;;;4997645;28;20560;-81
2022/10/22 12:14:25;;;;;;;4.28;1.33;;;22.60;99.90;;;;;;5008835;28;20449;-81
2022/10/22 12:17:13;;;;;;;5.72;1.40;;;22.90;99.90;;;;;;4996415;28;20022;-81
2022/10/22 12:19:44;;;;;;;4.90;1.30;;;23.80;99.90;;;;;;4980823;28;20122;-81
2022/10/22 12:22:13;;;;;;;7.40;1.42;;;24.30;99.90;;;;;;5014259;28;20470;-81
2022/10/22 12:24:43;;;;;;;6.20;1.35;;;24.70;99.90;;;;;;4998782;28;20030;-82
2022/10/22 12:27:22;;;;;;;6.05;1.10;;;25.20;99.90;;;;;;4999843;28;20555;-81
2022/10/22 12:29:55;;;;;;;6.10;1.35;;;24.90;99.90;;;;;;5000596;28;20026;-81
2022/10/22 12:32:22;;;;;;;5.80;1.70;;;24.00;99.90;;;;;;5004817;28;20041;-80
2022/10/22 12:34:50;;;;;;;6.32;1.30;;;22.80;99.90;;;;;;5027902;28;20030;-81
2022/10/22 12:37:18;;;;;;;5.50;1.13;;;21.90;99.90;;;;;;5019916;28;20025;-81
2022/10/22 12:39:45;;;;;;;5.15;1.13;;;21.10;99.90;;;;;;5009540;28;20025;-81
2022/10/22 12:42:16;;;;;;;6.90;1.52;;;20.70;99.90;;;;;;5000909;28;20025;-80
2022/10/22 12:44:45;;;;;;;5.90;1.35;;;20.30;99.90;;;;;;4997070;28;20018;-81
2022/10/22 12:47:17;;;;;;;3.33;1.00;;;20.10;99.90;;;;;;4996318;28;20050;-80
2022/10/22 12:49:46;;;;;;;4.72;1.38;;;20.00;99.90;;;;;;5002582;28;20420;-80
2022/10/22 12:52:19;;;;;;;4.68;1.25;;;20.70;99.90;;;;;;4993533;28;20100;-81
2022/10/22 12:54:51;;;;;;;;;;;21.90;99.90;;;;;;4998026;28;20034;-81
2022/10/22 12:57:19;;;;;;;8.45;1.60;;;23.10;99.90;;;;;;4998733;28;19916;-81
2022/10/22 12:59:50;;;;;;;5.97;1.30;;;23.60;99.90;;;;;;5011335;28;20393;-81
2022/10/22 13:02:20;;;;;;;6.70;1.38;;;23.20;99.90;;;;;;5016815;28;20158;-80
2022/10/22 13:05:05;;;;;;;6.35;1.50;;;22.50;99.90;;;;;;4995115;28;20109;-81
2022/10/22 13:07:40;;;;;;;5.03;1.20;;;21.90;99.90;;;;;;4994433;28;20091;-81
2022/10/22 13:10:24;;;;;;;8.18;1.65;;;21.50;99.90;;;;;;5014493;28;20034;-81
2022/10/22 13:12:53;;;;;;;7.47;1.33;;;21.20;99.90;;;;;;4995700;28;20034;-80
2022/10/22 13:15:27;;;;;;;4.15;1.00;;;21.90;99.90;;;;;;4992766;28;20026;-81
2022/10/22 13:18:14;;;;;;;4.95;1.10;;;22.20;99.90;;;;;;4998379;28;20032;-80
2022/10/22 13:20:57;;;;;;;3.45;0.93;;;21.90;99.90;;;;;;4995127;28;20033;-81
2022/10/22 13:23:24;;;;;;;;;;;21.50;99.90;;;;;;4991565;28;20033;-81